Pos.Doss.NomPrenomTempsVit.Moy.Allure Pos. cat�gCat�gorie Points Club
1 34 MEMURLIN CHRISTOPHE 00:41:10 16.32 00:03:41 1Séniors 1000 TEAM SOMJA
2 3581 LOUIS SEBASTIEN 00:41:50 16.06 00:03:44 2Séniors 988 RFCL
3 3612 ZARADZKI YOHAN 00:45:19 14.83 00:04:03 3Séniors 975 UTS SPA
4 3560 FAYET THOMAS 00:45:28 14.78 00:04:04 4Séniors 962
5 7 GARIN YVES 00:46:07 14.57 00:04:07 1Vétérans 1 950 TEAM SOMJA
6 3567 NEZZER JIMMY 00:48:00 14 00:04:17 5Séniors 938 LSTT
7 3610 MERTZ CHRISTOPHER 00:50:41 13.26 00:04:32 6Séniors 925 CSM JOG
8 3554 SIMON JEAN CHRISTOPHE 00:50:57 13.19 00:04:33 7Séniors 912
9 3584 VITELLO LAURENT 00:51:13 13.12 00:04:34 8Séniors 900 LES SACISSES
10 3608 WANSART NICOLAS 00:51:36 13.02 00:04:36 2Vétérans 1 888
11 3595 RODRIGUEZ FABRICE 00:51:54 12.95 00:04:38 3Vétérans 1 875 TEAM ARDENNE BIKETRUSTUP
12 3573 ZARADZKI ROBERT 00:52:07 12.89 00:04:39 1Vétérans 2 862
13 4 BOLLEN PASCAL 00:52:12 12.87 00:04:40 1Vétérans 3 850 SERAING ATHLETISME
14 3563 VRANCKEN MARC 00:52:22 12.83 00:04:41 2Vétérans 3 838
15 3614 ACQUISTAPACE SARAH 00:52:54 12.7 00:04:43 1Dames 825 SERAING ATHL
16 124 EVRARD ROLAND 00:53:01 12.68 00:04:44 4Vétérans 1 812 PAS DE CLUB
17 3603 COLBACE STEPHANE 00:53:04 12.66 00:04:44 2Vétérans 2 800 JIA
18 3578 DENEUMOSTIER JEREMIE 00:53:22 12.59 00:04:46 5Vétérans 1 788 RFAC
19 61 WOOLF ALAN 00:53:34 12.55 00:04:47 3Vétérans 3 775 CHALLENGE L AVENIR
20 210 STAS JEAN-PIERRE 00:53:38 12.53 00:04:47 3Vétérans 2 762 PAS DE CLUB
21 122 COOSEMANS ROMUALD 00:53:40 12.52 00:04:48 9Séniors 750 JOG IN ATTITUDE
22 20 BOUVIER NICOLAS 00:53:48 12.49 00:04:48 10Séniors 738
23 88 DEMIRCI ERSEN 00:53:51 12.48 00:04:48 11Séniors 725 PAS DE CLUB
24 78 MULLENS LAURENT 00:54:04 12.43 00:04:50 6Vétérans 1 712 LGS
25 3616 LARUE ARNAUD 00:54:15 12.39 00:04:51 12Séniors 700 JIA
26 207 MATAGNE GEOFFREY 00:54:43 12.28 00:04:53 13Séniors 688
27 9 HEYNS XAVIER 00:55:44 12.06 00:04:59 7Vétérans 1 675 RUN IN LIEGE
28 30 DEMARTEAU DIÉGO 00:55:56 12.01 00:04:60 1Espoirs H 662 JOG IN ATTITUDE
29 3613 DIRICKS MICHAEL 00:56:08 11.97 00:05:01 8Vétérans 1 650
30 3564 VITELLO FABIAN 00:56:34 11.88 00:05:03 14Séniors 638 LES SACISSES
31 108 KRIESCHER THIBAULT 00:56:54 11.81 00:05:05 15Séniors 625 PAS DE CLUB
32 136 PERIN MARC 00:57:03 11.78 00:05:06 4Vétérans 2 612
33 14 CUPPENS BENOIT 00:57:27 11.7 00:05:08 9Vétérans 1 600 PAS DE CLUB
34 175 CLOSSET DIDIER 00:58:08 11.56 00:05:11 10Vétérans 1 588 HERVE
35 3580 LENNES PIERRE 00:58:16 11.53 00:05:12 4Vétérans 3 575 TDCH
36 54 DUSSARD MAYA 00:58:17 11.53 00:05:12 1Espoirs D 562 JOG IN ATTITUDE
37 33 LEFORT PIERRE 00:58:21 11.52 00:05:13 11Vétérans 1 550 ATHLETISME MEHAGNE CLUB
38 59 BURNIAT OLIVIER 00:58:37 11.46 00:05:14 16Séniors 538 AUTRE
39 3571 MARTELANGE STEPHANIE 00:59:18 11.33 00:05:18 1Ainées 1 525 JIA
40 13 WILLET NICOLAS 00:59:24 11.31 00:05:18 12Vétérans 1 512 BIERBERGEN
41 52 PIFFET JOSS 00:59:49 11.23 00:05:20 17Séniors 500 PAS DE CLUB
42 3591 RINALDI VINCENT 01:00:05 11.18 00:05:22 18Séniors 488
43 46 VAN KERKHOVEN ANTOINE 01:00:12 11.16 00:05:23 19Séniors 475 PAS DE CLUB
44 3618 SONTAG THIERRY 01:00:26 11.12 00:05:24 13Vétérans 1 462
45 3566 PELZER FREDERICK 01:00:32 11.1 00:05:24 14Vétérans 1 450 HERV
46 70 DARCIS JOËL 01:00:41 11.07 00:05:25 20Séniors 438 RDV RUN
47 3631 DISTER JEAN FRANCOIS 01:01:09 10.99 00:05:28 15Vétérans 1 425
48 123 ZINNEN LAETITIA 01:01:20 10.96 00:05:29 2Dames 412 PAS DE CLUB
49 3552 JORIS JONATHAN 01:01:22 10.95 00:05:29 21Séniors 400 SOMJA TEAM
50 3597 PETERS MARIE JULIE 01:01:28 10.93 00:05:29 3Dames 388
51 117 D AMICO SALVINO 01:01:53 10.86 00:05:32 16Vétérans 1 375 BIERBERGEN
52 3590 GARROY CHRISTOPHE 01:02:02 10.83 00:05:32 17Vétérans 1 362
53 43 RONCATO FABRICE 01:02:42 10.72 00:05:36 18Vétérans 1 350 CJPL
54 203 DIO CALOGERO 01:03:05 10.65 00:05:38 19Vétérans 1 338 JIA
55 450 REMY SÉBASTIEN 01:03:14 10.63 00:05:39 22Séniors 325 PAS DE CLUB
56 29 MERTENS CAROLINE 01:06:47 10.06 00:05:58 4Dames 312 PAS DE CLUB
57 5 MATHOT RICHARD 01:06:47 10.06 00:05:58 5Vétérans 3 300 RFCL ATHLETISME
58 62 PATOUT ARNAUD 01:08:32 9.81 00:06:07 20Vétérans 1 288 LGS
59 127 AKKERMANS CHRISTIAN 01:09:16 9.7 00:06:11 6Vétérans 3 275 JOG IN ATTITUDE
60 3557 VICKEVORST LUC 01:09:37 9.65 00:06:13 7Vétérans 3 262 VITALITRI
61 147 RYSENAER JEAN 01:09:52 9.62 00:06:14 1Vétérans 4 250 PAS DE CLUB
62 3621 LAMBION LOIC 01:10:12 9.57 00:06:16 23Séniors 238
63 3624 TRATSAERT GREGORY 01:10:23 9.55 00:06:17 24Séniors 225 EVO 22
64 134 TANASE ARIELLE 01:10:31 9.53 00:06:18 1Ainées 2 212 JOG IN ATTITUDE
65 3601 JODOGNE MARGAUX 01:10:44 9.5 00:06:19 25Séniors 200
66 3586 LEROUX VALENTINE 01:11:47 9.36 00:06:25 2Ainées 1 188 JCPMF
67 145 SABEAU MICHEL 01:14:29 9.02 00:06:39 5Vétérans 2 175 PAS DE CLUB
68 3593 LEGRAND DELPHINE 01:14:51 8.98 00:06:41 5Dames 162
69 85 DRIESSENS PIERRE 01:15:12 8.94 00:06:43 2Vétérans 4 150 PAS DE CLUB
70 3589 PETERS PATRICK 01:15:34 8.89 00:06:45 8Vétérans 3 138 JIA
71 177 RANDRIAMAMPIANINA LIVA 01:16:03 8.84 00:06:47 3Ainées 1 125 ATHLETISME MEHAGNE CLUB
72 67 VAN LAAR CHRISTINE 01:16:20 8.8 00:06:49 2Ainées 2 112 CJPL
73 3611 BETTIOL FLORA 01:16:39 8.77 00:06:51 4Ainées 1 100 JIA
74 3602 BREVERS CHRISTIAN 01:16:40 8.77 00:06:51 26Séniors 88 TRIALIEGE
75 143 LELOUP DOMINIQUE 01:17:24 8.68 00:06:55 3Ainées 2 75 RDV RUN
76 74 PETERS FABRICE 01:18:29 8.56 00:07:00 21Vétérans 1 62 PAS DE CLUB
77 3555 VANDEWEYER LUDIVINE 01:21:03 8.29 00:07:14 5Ainées 1 50 SERAING RUNNERS
78 3570 NELHIEDBEL GYULA 01:23:45 8.02 00:07:29 6Vétérans 2 38 LE MIEN
79 3559 MAROT BERNARD 01:24:00 8 00:07:30 3Vétérans 4 25
80 3607 ROGISTER CHRISTELLE 01:31:46 7.32 00:08:12 6Dames 12
Les Rochers du Bout du Monde 2022
Distance : 11.2 kms
80 coureurs
Normal Interclubs